Terminal Aerodrome Forecast
Issued by NWS

Current Version | Previous Version | Text Only | Print | Product List | Glossary Off
Versions: 1 2 3 4 5 6 7 8 9 10 11 12 13 14 15 16 17 18 19 20 21

000
FTUS41 KILN 231400 AAB
TAFLUK
TAF AMD
KLUK 231438Z 2315/2412 18007KT P6SM VCTS SCT050CB OVC110
      TEMPO 2315/2317 5SM -TSRA BR OVC040CB
     FM231700 29009KT 5SM -SHRA BR VCTS OVC050CB
     FM232100 32010KT P6SM BKN060
     FM240000 01007KT P6SM BKN100
     FM241100 02006KT P6SM SCT100=

USA.gov is the U.S. government's official web portal to all federal, state and local government web resources and services.